Glendale, Oregon
Current Conditions -  °F | °C
As of 6:56 PM on Friday 19 Dec 2014 (Local Time) from KSXT Reporting Station
Moderate Fog Moderate Fog  
Wind Chill: 29°   Ceiling: 200
Heat Index: 37°   Visibility: 0.25mi
Dew Point: 37°   Wind: 12mph
Humidity: 100%   Direction: 190°S
Pressure: 29.96"   Gusts: 26mph
Location:  42.74°N, 123.42°W
Report Text: KSXT 200256Z AUTO 19010G23KT 1/4SM FG VV002 03/03 A2996 RMK AO2 RAE0157 SLP161 P0001 60002 T00280028 58004
Loading
Personal Weather Stations






























Interactive Weather Map New forecast layout! Learn more

10-Day Weather Forecast

Advertisements
Track Severe Weather on mobile